createdAt,value
2017-01-14T00:00:42.335Z,0
2017-01-14T00:01:42.794Z,0
2017-01-14T00:02:42.639Z,0
2017-01-14T00:03:42.986Z,0
2017-01-14T00:04:42.956Z,0
2017-01-14T00:05:43.008Z,0
2017-01-14T00:06:42.474Z,0
2017-01-14T00:07:42.809Z,0
2017-01-14T00:08:42.763Z,0
2017-01-14T00:09:42.149Z,0
2017-01-14T00:10:42.467Z,0
2017-01-14T00:11:42.764Z,0
2017-01-14T00:12:41.936Z,0
2017-01-14T00:13:42.568Z,0
2017-01-14T00:14:42.526Z,0
2017-01-14T00:15:42.091Z,0
2017-01-14T00:16:42.502Z,0
2017-01-14T00:17:42.381Z,0
2017-01-14T00:18:42.331Z,0
2017-01-14T00:19:42.286Z,0
2017-01-14T00:20:41.866Z,0
2017-01-14T00:21:42.213Z,0
2017-01-14T00:22:42.282Z,0
2017-01-14T00:23:41.735Z,0
2017-01-14T00:24:41.802Z,0
2017-01-14T00:25:42.087Z,0
2017-01-14T00:26:42.075Z,0
2017-01-14T00:27:41.180Z,0
2017-01-14T00:28:41.139Z,0
2017-01-14T00:29:41.893Z,0
2017-01-14T00:30:41.819Z,0
2017-01-14T00:31:41.765Z,0
2017-01-14T00:32:41.840Z,0
2017-01-14T00:33:41.301Z,0
2017-01-14T00:34:41.258Z,0
2017-01-14T00:35:41.633Z,0
2017-01-14T00:36:41.780Z,0
2017-01-14T00:37:40.749Z,0
2017-01-14T00:38:41.618Z,0
2017-01-14T00:39:41.100Z,0
2017-01-14T00:40:41.394Z,0
2017-01-14T00:41:40.965Z,0
2017-01-14T00:42:41.303Z,0
2017-01-14T00:43:40.880Z,0
2017-01-14T00:44:41.251Z,0
2017-01-14T00:45:40.402Z,0
2017-01-14T00:46:40.749Z,0
2017-01-14T00:47:40.316Z,0
2017-01-14T00:48:41.298Z,0
2017-01-14T00:49:40.619Z,0
2017-01-14T00:50:40.963Z,0
2017-01-14T00:51:40.534Z,0
2017-01-14T00:52:40.895Z,0
2017-01-14T00:53:40.062Z,0
2017-01-14T00:54:40.789Z,0
2017-01-14T00:55:40.744Z,0
2017-01-14T00:56:40.143Z,0
2017-01-14T00:57:40.271Z,0
2017-01-14T00:58:40.237Z,0
2017-01-14T00:59:39.803Z,0
2017-01-14T01:00:40.176Z,0
2017-01-14T01:01:40.537Z,0
2017-01-14T01:02:39.734Z,0
2017-01-14T01:03:40.019Z,0
2017-01-14T01:04:40.354Z,0
2017-01-14T01:05:39.552Z,0
2017-01-14T01:06:40.272Z,0
2017-01-14T01:07:40.292Z,0
2017-01-14T01:08:40.320Z,0
2017-01-14T01:09:39.375Z,0
2017-01-14T01:10:39.848Z,0
2017-01-14T01:11:39.676Z,0
2017-01-14T01:12:40.074Z,0
2017-01-14T01:13:40.292Z,0
2017-01-14T01:14:39.963Z,0
2017-01-14T01:15:39.145Z,0
2017-01-14T01:16:39.461Z,0
2017-01-14T01:17:39.803Z,0
2017-01-14T01:18:39.964Z,0
2017-01-14T01:19:39.335Z,0
2017-01-14T01:20:39.409Z,0
2017-01-14T01:21:39.734Z,0
2017-01-14T01:22:39.974Z,0
2017-01-14T01:23:39.161Z,0
2017-01-14T01:24:38.732Z,0
2017-01-14T01:25:39.071Z,0
2017-01-14T01:26:38.263Z,0
2017-01-14T01:27:38.990Z,0
2017-01-14T01:28:39.446Z,0
2017-01-14T01:29:38.913Z,0
2017-01-14T01:30:38.857Z,0
2017-01-14T01:31:38.813Z,0
2017-01-14T01:32:38.599Z,0
2017-01-14T01:33:38.346Z,0
2017-01-14T01:34:38.879Z,0
2017-01-14T01:35:39.029Z,0
2017-01-14T01:36:39.442Z,0
2017-01-14T01:37:38.562Z,0
2017-01-14T01:38:38.934Z,0
2017-01-14T01:39:38.088Z,0
2017-01-14T01:40:38.924Z,0
2017-01-14T01:41:38.779Z,0
2017-01-14T01:42:37.954Z,0
2017-01-14T01:43:38.310Z,0
2017-01-14T01:44:38.262Z,0
2017-01-14T01:45:38.644Z,0
2017-01-14T01:46:38.557Z,0
2017-01-14T01:47:38.138Z,0
2017-01-14T01:48:38.592Z,0
2017-01-14T01:49:38.428Z,0
2017-01-14T01:50:38.002Z,0
2017-01-14T01:51:37.965Z,0
2017-01-14T01:52:37.939Z,0
2017-01-14T01:53:38.168Z,0
2017-01-14T01:54:38.335Z,0
2017-01-14T01:55:37.786Z,0
2017-01-14T01:56:38.317Z,0
2017-01-14T01:57:38.165Z,0
2017-01-14T01:58:38.044Z,0
2017-01-14T01:59:38.138Z,0
2017-01-14T02:00:37.957Z,0
2017-01-14T02:01:37.530Z,0
2017-01-14T02:02:37.490Z,0
2017-01-14T02:03:37.061Z,0
2017-01-14T02:04:37.766Z,0
2017-01-14T02:05:37.819Z,0
2017-01-14T02:06:37.392Z,0
2017-01-14T02:07:37.532Z,0
2017-01-14T02:08:37.231Z,0
2017-01-14T02:09:37.595Z,0
2017-01-14T02:10:37.147Z,0
2017-01-14T02:11:37.488Z,0
2017-01-14T02:12:37.444Z,0
2017-01-14T02:13:37.409Z,0
2017-01-14T02:14:36.601Z,0
2017-01-14T02:15:37.025Z,0
2017-01-14T02:16:37.080Z,0
2017-01-14T02:17:36.850Z,0
2017-01-14T02:18:37.279Z,0
2017-01-14T02:19:36.821Z,0
2017-01-14T02:20:37.364Z,0
2017-01-14T02:21:37.110Z,0
2017-01-14T02:22:37.151Z,0
2017-01-14T02:23:36.969Z,0
2017-01-14T02:24:36.940Z,0
2017-01-14T02:25:36.586Z,0
2017-01-14T02:26:36.611Z,0
2017-01-14T02:27:36.805Z,0
2017-01-14T02:28:36.428Z,0
2017-01-14T02:29:36.725Z,0
2017-01-14T02:30:36.752Z,0
2017-01-14T02:31:36.247Z,0
2017-01-14T02:32:36.205Z,0
2017-01-14T02:33:36.632Z,0
2017-01-14T02:34:36.551Z,0
2017-01-14T02:35:36.186Z,0
2017-01-14T02:36:36.033Z,0
2017-01-14T02:37:36.031Z,0
2017-01-14T02:38:35.951Z,0
2017-01-14T02:39:35.911Z,0
2017-01-14T02:40:35.862Z,0
2017-01-14T02:41:35.896Z,0
2017-01-14T02:42:36.171Z,0
2017-01-14T02:43:35.876Z,0
2017-01-14T02:44:35.990Z,0
2017-01-14T02:45:35.656Z,0
2017-01-14T02:46:36.064Z,0
2017-01-14T02:47:35.560Z,0
2017-01-14T02:48:35.137Z,0
2017-01-14T02:49:35.486Z,0
2017-01-14T02:50:35.680Z,0
2017-01-14T02:51:36.205Z,0
2017-01-14T02:52:35.767Z,0
2017-01-14T02:53:35.595Z,0
2017-01-14T02:54:35.653Z,0
2017-01-14T02:55:35.223Z,0
2017-01-14T02:56:35.183Z,0
2017-01-14T02:57:35.143Z,0
2017-01-14T02:58:36.137Z,0
2017-01-14T02:59:35.053Z,0
2017-01-14T03:00:35.468Z,0
2017-01-14T03:01:35.351Z,0
2017-01-14T03:02:34.930Z,0
2017-01-14T03:03:35.266Z,0
2017-01-14T03:04:34.840Z,0
2017-01-14T03:05:35.188Z,0
2017-01-14T03:06:35.139Z,0
2017-01-14T03:07:34.329Z,0
2017-01-14T03:08:34.676Z,0
2017-01-14T03:09:35.053Z,0
2017-01-14T03:10:34.716Z,0
2017-01-14T03:11:34.542Z,0
2017-01-14T03:12:34.130Z,0
2017-01-14T03:13:34.522Z,0
2017-01-14T03:14:34.505Z,0
2017-01-14T03:15:34.756Z,0
2017-01-14T03:16:34.715Z,0
2017-01-14T03:17:33.916Z,0
2017-01-14T03:18:34.367Z,0
2017-01-14T03:19:34.216Z,0
2017-01-14T03:20:34.544Z,0
2017-01-14T03:21:34.529Z,0
2017-01-14T03:22:33.705Z,0
2017-01-14T03:23:34.111Z,0
2017-01-14T03:24:33.603Z,0
2017-01-14T03:25:33.561Z,0
2017-01-14T03:26:33.920Z,0
2017-01-14T03:27:34.243Z,0
2017-01-14T03:28:34.203Z,0
2017-01-14T03:29:33.825Z,0
2017-01-14T03:30:33.884Z,0
2017-01-14T03:31:33.811Z,0
2017-01-14T03:32:34.109Z,0
2017-01-14T03:33:33.990Z,0
2017-01-14T03:34:33.951Z,0
2017-01-14T03:35:33.910Z,0
2017-01-14T03:36:33.091Z,0
2017-01-14T03:37:33.051Z,0
2017-01-14T03:38:33.779Z,0
2017-01-14T03:39:33.351Z,0
2017-01-14T03:40:33.700Z,0
2017-01-14T03:41:33.275Z,0
2017-01-14T03:42:33.222Z,0
2017-01-14T03:43:33.563Z,0
2017-01-14T03:44:33.162Z,0
2017-01-14T03:45:33.097Z,0
2017-01-14T03:46:33.056Z,0
2017-01-14T03:47:33.401Z,0
2017-01-14T03:48:32.995Z,0
2017-01-14T03:49:33.418Z,0
2017-01-14T03:50:33.334Z,0
2017-01-14T03:51:33.220Z,0
2017-01-14T03:52:32.896Z,0
2017-01-14T03:53:32.376Z,0
2017-01-14T03:54:33.101Z,0
2017-01-14T03:55:32.668Z,0
2017-01-14T03:56:32.629Z,0
2017-01-14T03:57:32.204Z,0
2017-01-14T03:59:32.889Z,0
2017-01-14T04:00:32.850Z,0
2017-01-14T04:01:32.888Z,0
2017-01-14T04:02:32.107Z,0
2017-01-14T04:03:32.713Z,0
2017-01-14T04:04:32.288Z,0
2017-01-14T04:05:32.835Z,0
2017-01-14T04:06:32.200Z,0
2017-01-14T04:07:46.676Z,0
2017-01-14T04:08:32.609Z,0
2017-01-14T04:09:32.467Z,0
2017-01-14T04:10:32.044Z,0
2017-01-14T04:11:31.999Z,0
2017-01-14T04:12:32.334Z,0
2017-01-14T04:13:32.288Z,0
2017-01-14T04:14:31.096Z,0
2017-01-14T04:15:31.440Z,0
2017-01-14T04:16:32.277Z,0
2017-01-14T04:17:31.738Z,0
2017-01-14T04:18:32.139Z,0
2017-01-14T04:19:32.086Z,0
2017-01-14T04:20:32.003Z,0
2017-01-14T04:21:31.181Z,0
2017-01-14T04:22:31.520Z,0
2017-01-14T04:23:32.113Z,0
2017-01-14T04:24:31.445Z,0
2017-01-14T04:25:31.783Z,0
2017-01-14T04:26:31.768Z,0
2017-01-14T04:27:31.907Z,0
2017-01-14T04:28:31.660Z,0
2017-01-14T04:29:31.612Z,0
2017-01-14T04:30:31.565Z,0
2017-01-14T04:31:31.257Z,0
2017-01-14T04:32:31.493Z,0
2017-01-14T04:33:31.069Z,0
2017-01-14T04:34:31.428Z,0
2017-01-14T04:35:30.977Z,0
2017-01-14T04:36:31.329Z,0
2017-01-14T04:37:31.731Z,0
2017-01-14T04:38:30.456Z,0
2017-01-14T04:39:31.186Z,0
2017-01-14T04:40:31.151Z,0
2017-01-14T04:41:30.720Z,0
2017-01-14T04:42:31.095Z,0
2017-01-14T04:43:30.637Z,0
2017-01-14T04:44:30.589Z,0
2017-01-14T04:45:30.546Z,0
2017-01-14T04:46:30.505Z,0
2017-01-14T04:47:30.849Z,0
2017-01-14T04:48:30.419Z,0
2017-01-14T04:49:30.759Z,0
2017-01-14T04:50:29.953Z,0
2017-01-14T04:51:30.306Z,0
2017-01-14T04:52:30.660Z,0
2017-01-14T04:53:30.690Z,0
2017-01-14T04:54:45.071Z,0
2017-01-14T04:55:30.173Z,0
2017-01-14T04:56:30.083Z,0
2017-01-14T04:57:30.431Z,0
2017-01-14T04:58:30.408Z,0
2017-01-14T04:59:30.345Z,0
2017-01-14T05:00:30.300Z,0
2017-01-14T05:01:29.868Z,0
2017-01-14T05:02:30.207Z,0
2017-01-14T05:03:29.781Z,0
2017-01-14T05:04:29.740Z,0
2017-01-14T05:05:29.702Z,0
2017-01-14T05:06:30.081Z,0
2017-01-14T05:07:29.619Z,0
2017-01-14T05:08:29.956Z,0
2017-01-14T05:09:29.916Z,0
2017-01-14T05:10:30.062Z,0
2017-01-14T05:11:29.856Z,0
2017-01-14T05:12:29.403Z,0
2017-01-14T05:13:29.891Z,0
2017-01-14T05:14:29.788Z,0
2017-01-14T05:15:29.273Z,0
2017-01-14T05:16:29.240Z,0
2017-01-14T05:17:29.720Z,0
2017-01-14T05:18:29.543Z,0
2017-01-14T05:19:29.886Z,0
2017-01-14T05:20:29.096Z,0
2017-01-14T05:21:29.403Z,0
2017-01-14T05:22:29.367Z,0
2017-01-14T05:23:29.486Z,0
2017-01-14T05:24:28.902Z,0
2017-01-14T05:25:28.850Z,0
2017-01-14T05:26:29.527Z,0
2017-01-14T05:27:28.764Z,0
2017-01-14T05:28:28.761Z,0
2017-01-14T05:29:28.687Z,0
2017-01-14T05:30:28.708Z,0
2017-01-14T05:31:28.982Z,0
2017-01-14T05:32:28.943Z,0
2017-01-14T05:33:28.945Z,0
2017-01-14T05:34:28.084Z,0
2017-01-14T05:35:28.805Z,0
2017-01-14T05:36:28.797Z,0
2017-01-14T05:37:28.341Z,0
2017-01-14T05:38:28.680Z,0
2017-01-14T05:39:28.366Z,0
2017-01-14T05:40:28.599Z,0
2017-01-14T05:41:28.483Z,0
2017-01-14T05:42:28.129Z,0
2017-01-14T05:43:28.097Z,0
2017-01-14T05:44:28.052Z,0
2017-01-14T05:45:28.613Z,0
2017-01-14T05:46:27.982Z,0
2017-01-14T05:47:27.923Z,0
2017-01-14T05:48:28.266Z,0
2017-01-14T05:49:27.838Z,0
2017-01-14T05:50:27.509Z,0
2017-01-14T05:51:28.134Z,0
2017-01-14T05:52:28.095Z,0
2017-01-14T05:53:28.053Z,0
2017-01-14T05:54:28.012Z,0
2017-01-14T05:55:27.586Z,0
2017-01-14T05:56:27.925Z,0
2017-01-14T05:57:27.880Z,0
2017-01-14T05:58:27.453Z,0
2017-01-14T05:59:27.802Z,0
2017-01-14T06:00:27.751Z,0
2017-01-14T06:01:27.933Z,0
2017-01-14T06:02:27.682Z,0
2017-01-14T06:03:27.242Z,0
2017-01-14T06:04:27.203Z,0
2017-01-14T06:05:27.204Z,0
2017-01-14T06:06:27.503Z,0
2017-01-14T06:07:27.069Z,0
2017-01-14T06:08:27.594Z,0
2017-01-14T06:09:26.984Z,0
2017-01-14T06:10:26.948Z,0
2017-01-14T06:11:27.292Z,0
2017-01-14T06:12:26.861Z,0
2017-01-14T06:13:27.203Z,0
2017-01-14T06:14:26.770Z,0
2017-01-14T06:15:26.765Z,0
2017-01-14T06:16:26.692Z,0
2017-01-14T06:17:27.034Z,0
2017-01-14T06:18:26.226Z,0
2017-01-14T06:19:26.181Z,0
2017-01-14T06:20:26.521Z,0
2017-01-14T06:21:26.474Z,0
2017-01-14T06:22:26.824Z,0
2017-01-14T06:23:26.394Z,0
2017-01-14T06:24:25.962Z,0
2017-01-14T06:25:26.697Z,0
2017-01-14T06:26:26.397Z,0
2017-01-14T06:27:26.224Z,0
2017-01-14T06:28:26.181Z,0
2017-01-14T06:29:25.366Z,0
2017-01-14T06:30:26.494Z,0
2017-01-14T06:31:26.129Z,0
2017-01-14T06:32:40.945Z,4
2017-01-14T06:33:26.384Z,4
2017-01-14T06:34:25.923Z,4
2017-01-14T06:35:25.501Z,0
2017-01-14T06:36:26.230Z,0
2017-01-14T06:37:26.185Z,0
2017-01-14T06:38:25.758Z,4
2017-01-14T06:39:26.260Z,4
2017-01-14T06:40:25.677Z,4
2017-01-14T06:41:26.019Z,4
2017-01-14T06:42:25.587Z,4
2017-01-14T06:43:25.575Z,8
2017-01-14T06:44:25.538Z,8
2017-01-14T06:45:25.460Z,8
2017-01-14T06:46:25.797Z,12
2017-01-14T06:47:25.767Z,12
2017-01-14T06:48:25.327Z,8
2017-01-14T06:49:25.290Z,12
2017-01-14T06:50:24.866Z,12
2017-01-14T06:51:25.592Z,16
2017-01-14T06:52:25.545Z,16
2017-01-14T06:53:25.115Z,20
2017-01-14T06:54:25.461Z,20
2017-01-14T06:55:25.423Z,24
2017-01-14T06:56:25.378Z,32
2017-01-14T06:57:25.334Z,32
2017-01-14T06:58:25.295Z,36
2017-01-14T06:59:25.275Z,44
2017-01-14T07:00:25.212Z,56
2017-01-14T07:01:25.166Z,64
2017-01-14T07:02:24.744Z,76
2017-01-14T07:03:25.309Z,88
2017-01-14T07:04:25.040Z,96
2017-01-14T07:05:25.096Z,112
2017-01-14T07:06:24.958Z,124
2017-01-14T07:07:24.915Z,132
2017-01-14T07:08:24.955Z,144
2017-01-14T07:09:24.053Z,144
2017-01-14T07:10:24.791Z,168
2017-01-14T07:11:24.745Z,164
2017-01-14T07:12:24.702Z,160
2017-01-14T07:13:24.660Z,160
2017-01-14T07:14:24.234Z,168
2017-01-14T07:15:24.190Z,180
2017-01-14T07:16:24.651Z,196
2017-01-14T07:17:23.716Z,192
2017-01-14T07:18:24.448Z,200
2017-01-14T07:19:24.118Z,212
2017-01-14T07:20:23.972Z,236
2017-01-14T07:21:24.435Z,252
2017-01-14T07:22:24.282Z,256
2017-01-14T07:23:24.232Z,272
2017-01-14T07:24:23.820Z,288
2017-01-14T07:25:24.187Z,308
2017-01-14T07:26:24.220Z,308
2017-01-14T07:27:22.913Z,380
2017-01-14T07:28:23.748Z,364
2017-01-14T07:29:23.599Z,392
2017-01-14T07:30:23.560Z,408
2017-01-14T07:31:23.570Z,412
2017-01-14T07:32:23.496Z,440
2017-01-14T07:33:23.806Z,412
2017-01-14T07:34:23.875Z,416
2017-01-14T07:35:23.373Z,424
2017-01-14T07:36:23.304Z,508
2017-01-14T07:37:23.264Z,636
2017-01-14T07:38:23.628Z,700
2017-01-14T07:39:23.200Z,772
2017-01-14T07:40:23.525Z,804
2017-01-14T07:41:23.171Z,840
2017-01-14T07:42:23.441Z,832
2017-01-14T07:43:23.032Z,868
2017-01-14T07:44:23.354Z,960
2017-01-14T07:45:22.977Z,964
2017-01-14T07:46:23.289Z,912
2017-01-14T07:47:23.242Z,856
2017-01-14T07:48:22.790Z,840
2017-01-14T07:49:23.132Z,908
2017-01-14T07:50:22.716Z,880
2017-01-14T07:51:23.055Z,872
2017-01-14T07:52:22.628Z,844
2017-01-14T07:53:22.582Z,884
2017-01-14T07:54:22.931Z,964
2017-01-14T07:55:22.495Z,952
2017-01-14T07:56:22.457Z,1004
2017-01-14T07:57:22.801Z,1044
2017-01-14T07:58:22.780Z,1028
2017-01-14T07:59:22.721Z,988
2017-01-14T08:00:22.288Z,940
2017-01-14T08:01:22.348Z,944
2017-01-14T08:02:22.668Z,952
2017-01-14T08:03:22.164Z,964
2017-01-14T08:04:22.508Z,1020
2017-01-14T08:05:22.467Z,1020
2017-01-14T08:06:22.414Z,1024
2017-01-14T08:07:21.995Z,1148
2017-01-14T08:08:21.947Z,1180
2017-01-14T08:09:22.336Z,1204
2017-01-14T08:10:22.339Z,1200
2017-01-14T08:11:22.227Z,1152
2017-01-14T08:12:22.165Z,1176
2017-01-14T08:13:22.130Z,1156
2017-01-14T08:14:21.695Z,1260
2017-01-14T08:15:22.043Z,1348
2017-01-14T08:16:21.733Z,1240
2017-01-14T08:17:21.963Z,1196
2017-01-14T08:18:21.530Z,1304
2017-01-14T08:19:21.866Z,1260
2017-01-14T08:20:21.826Z,1204
2017-01-14T08:21:21.789Z,1268
2017-01-14T08:22:21.359Z,1256
2017-01-14T08:23:21.735Z,1236
2017-01-14T08:24:21.318Z,1188
2017-01-14T08:25:21.238Z,1196
2017-01-14T08:26:21.577Z,1228
2017-01-14T08:27:21.157Z,1256
2017-01-14T08:28:21.491Z,1208
2017-01-14T08:29:21.063Z,1384
2017-01-14T08:30:21.067Z,1620
2017-01-14T08:31:20.981Z,1808
2017-01-14T08:32:21.321Z,1724
2017-01-14T08:33:20.893Z,1624
2017-01-14T08:34:20.862Z,1532
2017-01-14T08:35:20.917Z,1456
2017-01-14T08:36:21.244Z,1488
2017-01-14T08:37:21.124Z,1712
2017-01-14T08:38:20.404Z,1904
2017-01-14T08:39:20.263Z,1996
2017-01-14T08:40:20.603Z,2320
2017-01-14T08:41:20.951Z,2288
2017-01-14T08:42:20.903Z,2216
2017-01-14T08:43:20.857Z,2168
2017-01-14T08:44:20.485Z,2356
2017-01-14T08:45:20.827Z,2476
2017-01-14T08:46:20.345Z,2680
2017-01-14T08:47:20.309Z,2972
2017-01-14T08:48:20.654Z,3156
2017-01-14T08:49:20.234Z,3092
2017-01-14T08:50:20.566Z,2796
2017-01-14T08:51:20.198Z,2456
2017-01-14T08:52:19.714Z,2380
2017-01-14T08:53:20.067Z,2328
2017-01-14T08:54:20.020Z,2240
2017-01-14T08:55:19.973Z,2224
2017-01-14T08:56:19.936Z,2084
2017-01-14T08:57:19.897Z,2052
2017-01-14T08:58:19.464Z,2072
2017-01-14T08:59:20.195Z,2116
2017-01-14T09:00:20.149Z,2176
2017-01-14T09:01:19.730Z,2280
2017-01-14T09:02:19.722Z,2520
2017-01-14T09:03:20.128Z,2876
2017-01-14T09:04:19.985Z,2928
2017-01-14T09:05:19.556Z,2808
2017-01-14T09:06:19.134Z,2996
2017-01-14T09:07:19.126Z,3124
2017-01-14T09:08:19.429Z,3216
2017-01-14T09:09:19.000Z,3376
2017-01-14T09:10:19.344Z,3464
2017-01-14T09:11:19.691Z,3520
2017-01-14T09:12:19.262Z,3740
2017-01-14T09:13:19.220Z,3884
2017-01-14T09:14:19.183Z,3952
2017-01-14T09:15:19.136Z,3860
2017-01-14T09:16:19.090Z,4128
2017-01-14T09:17:19.461Z,4248
2017-01-14T09:18:18.812Z,4580
2017-01-14T09:19:19.059Z,4468
2017-01-14T09:20:19.310Z,4416
2017-01-14T09:21:18.931Z,4644
2017-01-14T09:22:18.841Z,4804
2017-01-14T09:23:18.418Z,4512
2017-01-14T09:24:19.141Z,4320
2017-01-14T09:25:18.335Z,4164
2017-01-14T09:26:18.795Z,3952
2017-01-14T09:27:18.247Z,3700
2017-01-14T09:28:18.599Z,3352
2017-01-14T09:29:18.948Z,3336
2017-01-14T09:30:18.505Z,3604
2017-01-14T09:31:18.474Z,3432
2017-01-14T09:32:18.428Z,3252
2017-01-14T09:33:18.770Z,3524
2017-01-14T09:34:18.342Z,3736
2017-01-14T09:35:18.705Z,3556
2017-01-14T09:36:18.262Z,3576
2017-01-14T09:37:18.604Z,3616
2017-01-14T09:38:17.410Z,3480
2017-01-14T09:39:18.137Z,3260
2017-01-14T09:40:18.479Z,3244
2017-01-14T09:41:17.277Z,3180
2017-01-14T09:42:18.403Z,2904
2017-01-14T09:43:17.975Z,3064
2017-01-14T09:44:17.545Z,3088
2017-01-14T09:45:17.888Z,2872
2017-01-14T09:46:17.877Z,2692
2017-01-14T09:47:17.806Z,2876
2017-01-14T09:48:18.150Z,3008
2017-01-14T09:49:17.740Z,3012
2017-01-14T09:50:17.690Z,2824
2017-01-14T09:51:17.257Z,2920
2017-01-14T09:52:17.619Z,3140
2017-01-14T09:53:17.567Z,3260
2017-01-14T09:54:17.564Z,2936
2017-01-14T09:55:17.918Z,3128
2017-01-14T09:56:17.816Z,3264
2017-01-14T09:57:17.054Z,3136
2017-01-14T09:58:16.963Z,3228
2017-01-14T09:59:17.620Z,3828
2017-01-14T10:00:17.647Z,3764
2017-01-14T10:01:17.222Z,3124
2017-01-14T10:02:17.183Z,3812
2017-01-14T10:03:17.142Z,3936
2017-01-14T10:04:17.104Z,3744
2017-01-14T10:05:17.511Z,3720
2017-01-14T10:06:17.604Z,3672
2017-01-14T10:07:17.359Z,3272
2017-01-14T10:08:16.544Z,3120
2017-01-14T10:09:16.509Z,3188
2017-01-14T10:10:17.247Z,3396
2017-01-14T10:11:17.231Z,2632
2017-01-14T10:12:16.771Z,2492
2017-01-14T10:13:17.113Z,2972
2017-01-14T10:14:16.699Z,3676
2017-01-14T10:15:17.039Z,3972
2017-01-14T10:16:16.607Z,3792
2017-01-14T10:17:16.172Z,3472
2017-01-14T10:18:16.520Z,3304
2017-01-14T10:19:16.096Z,3252
2017-01-14T10:20:16.821Z,3436
2017-01-14T10:21:16.395Z,3836
2017-01-14T10:22:16.749Z,3856
2017-01-14T10:23:16.706Z,3480
2017-01-14T10:24:16.266Z,3532
2017-01-14T10:25:15.844Z,3564
2017-01-14T10:26:16.191Z,3316
2017-01-14T10:27:16.248Z,3984
2017-01-14T10:28:16.541Z,4776
2017-01-14T10:29:16.449Z,4320
2017-01-14T10:30:16.410Z,5816
2017-01-14T10:31:16.382Z,5960
2017-01-14T10:32:16.337Z,5876
2017-01-14T10:33:16.295Z,6072
2017-01-14T10:34:15.854Z,5704
2017-01-14T10:35:16.209Z,5656
2017-01-14T10:36:15.777Z,6056
2017-01-14T10:37:15.780Z,5960
2017-01-14T10:38:15.690Z,5352
2017-01-14T10:39:16.039Z,4996
2017-01-14T10:40:15.697Z,5100
2017-01-14T10:41:15.960Z,4924
2017-01-14T10:42:15.533Z,4816
2017-01-14T10:43:15.485Z,5324
2017-01-14T10:44:15.064Z,5136
2017-01-14T10:45:15.814Z,5532
2017-01-14T10:46:14.974Z,5688
2017-01-14T10:47:14.937Z,5884
2017-01-14T10:48:15.276Z,5676
2017-01-14T10:49:15.256Z,5368
2017-01-14T10:50:15.586Z,5892
2017-01-14T10:51:15.548Z,5720
2017-01-14T10:52:15.117Z,6064
2017-01-14T10:53:15.072Z,5648
2017-01-14T10:54:15.430Z,5448
2017-01-14T10:55:15.390Z,4924
2017-01-14T10:56:14.953Z,4904
2017-01-14T10:57:15.300Z,5404
2017-01-14T10:58:15.257Z,5932
2017-01-14T10:59:14.832Z,5576
2017-01-14T11:00:14.796Z,5084
2017-01-14T11:01:14.751Z,5164
2017-01-14T11:02:15.175Z,5496
2017-01-14T11:03:14.284Z,6148
2017-01-14T11:04:15.019Z,5916
2017-01-14T11:05:14.967Z,5164
2017-01-14T11:06:14.598Z,5388
2017-01-14T11:07:14.891Z,5672
2017-01-14T11:08:14.462Z,5532
2017-01-14T11:09:14.040Z,5232
2017-01-14T11:10:14.384Z,5004
2017-01-14T11:11:14.732Z,4944
2017-01-14T11:12:14.684Z,5296
2017-01-14T11:13:14.640Z,5264
2017-01-14T11:14:14.625Z,5284
2017-01-14T11:15:14.557Z,5440
2017-01-14T11:16:13.747Z,5640
2017-01-14T11:17:14.490Z,4796
2017-01-14T11:18:14.438Z,4512
2017-01-14T11:19:14.414Z,5000
2017-01-14T11:20:14.501Z,5772
2017-01-14T11:21:14.047Z,5276
2017-01-14T11:22:13.505Z,5268
2017-01-14T11:23:14.237Z,5084
2017-01-14T11:24:13.804Z,4460
2017-01-14T11:25:13.776Z,4256
2017-01-14T11:26:14.113Z,4084
2017-01-14T11:27:14.069Z,3744
2017-01-14T11:28:14.144Z,3612
2017-01-14T11:29:13.220Z,3420
2017-01-14T11:30:13.959Z,3392
2017-01-14T11:31:13.918Z,4000
2017-01-14T11:32:13.869Z,3900
2017-01-14T11:33:13.440Z,3656
2017-01-14T11:34:13.793Z,3736
2017-01-14T11:35:13.369Z,4044
2017-01-14T11:36:13.703Z,5444
2017-01-14T11:37:13.725Z,5896
2017-01-14T11:38:13.626Z,5776
2017-01-14T11:39:13.221Z,5544
2017-01-14T11:40:12.775Z,5416
2017-01-14T11:41:13.560Z,5108
2017-01-14T11:42:13.462Z,5044
2017-01-14T11:43:13.032Z,5844
2017-01-14T11:44:12.219Z,6488
2017-01-14T11:45:13.334Z,6760
2017-01-14T11:46:13.293Z,6604
2017-01-14T11:47:13.258Z,5788
2017-01-14T11:48:12.515Z,4916
2017-01-14T11:49:12.785Z,4480
2017-01-14T11:50:12.376Z,4424
2017-01-14T11:51:13.087Z,4852
2017-01-14T11:52:12.711Z,5276
2017-01-14T11:53:12.625Z,5196
2017-01-14T11:54:12.580Z,5260
2017-01-14T11:55:12.162Z,4868
2017-01-14T11:56:12.522Z,4352
2017-01-14T11:57:12.468Z,4036
2017-01-14T11:58:12.419Z,4392
2017-01-14T11:59:12.758Z,5588
2017-01-14T12:00:12.338Z,6488
2017-01-14T12:01:12.688Z,7508
2017-01-14T12:02:12.639Z,8016
2017-01-14T12:03:11.854Z,8280
2017-01-14T12:04:12.176Z,8392
2017-01-14T12:05:12.521Z,8848
2017-01-14T12:06:12.104Z,9224
2017-01-14T12:07:12.440Z,9492
2017-01-14T12:08:12.477Z,9600
2017-01-14T12:09:11.966Z,9256
2017-01-14T12:10:11.928Z,8860
2017-01-14T12:11:11.507Z,8528
2017-01-14T12:12:11.844Z,8044
2017-01-14T12:13:11.812Z,7808
2017-01-14T12:14:12.158Z,7460
2017-01-14T12:15:11.731Z,6444
2017-01-14T12:16:12.074Z,7340
2017-01-14T12:17:11.657Z,8620
2017-01-14T12:18:11.249Z,9024
2017-01-14T12:19:11.565Z,9152
2017-01-14T12:20:11.523Z,7752
2017-01-14T12:21:11.871Z,6876
2017-01-14T12:22:11.827Z,7048
2017-01-14T12:23:11.400Z,6744
2017-01-14T12:24:11.516Z,6808
2017-01-14T12:25:11.330Z,6840
2017-01-14T12:26:11.284Z,6688
2017-01-14T12:27:10.854Z,6052
2017-01-14T12:28:11.200Z,6300
2017-01-14T12:29:11.163Z,6768
2017-01-14T12:30:11.121Z,6728
2017-01-14T12:31:11.552Z,6832
2017-01-14T12:32:11.432Z,6968
2017-01-14T12:33:11.048Z,7052
2017-01-14T12:34:10.962Z,7108
2017-01-14T12:35:10.534Z,7128
2017-01-14T12:36:11.272Z,7084
2017-01-14T12:37:11.245Z,6956
2017-01-14T12:38:10.805Z,6868
2017-01-14T12:39:11.140Z,6872
2017-01-14T12:40:11.102Z,6852
2017-01-14T12:41:10.682Z,6752
2017-01-14T12:42:10.646Z,6664
2017-01-14T12:43:10.992Z,6220
2017-01-14T12:44:10.558Z,6148
2017-01-14T12:45:10.134Z,6308
2017-01-14T12:46:10.892Z,6232
2017-01-14T12:47:10.824Z,6232
2017-01-14T12:48:10.793Z,6024
2017-01-14T12:49:10.359Z,5780
2017-01-14T12:50:10.313Z,5848
2017-01-14T12:51:10.665Z,6064
2017-01-14T12:52:10.232Z,6164
2017-01-14T12:53:10.229Z,6220
2017-01-14T12:54:10.160Z,6252
2017-01-14T12:55:10.114Z,6112
2017-01-14T12:56:09.702Z,5700
2017-01-14T12:57:10.414Z,5476
2017-01-14T12:58:10.381Z,5428
2017-01-14T12:59:10.336Z,5484
2017-01-14T13:00:10.293Z,5632
2017-01-14T13:01:09.486Z,5576
2017-01-14T13:02:10.223Z,4840
2017-01-14T13:03:09.797Z,3740
2017-01-14T13:04:10.137Z,3120
2017-01-14T13:05:10.091Z,3924
2017-01-14T13:06:10.081Z,4704
2017-01-14T13:07:09.272Z,5232
2017-01-14T13:08:09.995Z,5748
2017-01-14T13:09:09.933Z,5884
2017-01-14T13:10:09.888Z,5424
2017-01-14T13:11:09.846Z,5064
2017-01-14T13:12:09.819Z,5096
2017-01-14T13:13:08.627Z,5288
2017-01-14T13:14:08.954Z,5500
2017-01-14T13:15:09.671Z,5540
2017-01-14T13:16:09.687Z,5760
2017-01-14T13:17:09.605Z,5976
2017-01-14T13:18:08.791Z,6220
2017-01-14T13:19:09.523Z,6336
2017-01-14T13:20:09.478Z,6220
2017-01-14T13:21:08.350Z,6072
2017-01-14T13:22:09.397Z,5712
2017-01-14T13:23:09.365Z,5576
2017-01-14T13:24:08.940Z,5840
2017-01-14T13:25:09.035Z,5884
2017-01-14T13:26:08.853Z,5748
2017-01-14T13:27:09.406Z,5736
2017-01-14T13:28:09.152Z,5616
2017-01-14T13:29:08.343Z,5300
2017-01-14T13:30:08.682Z,4928
2017-01-14T13:31:09.039Z,4272
2017-01-14T13:32:08.997Z,4412
2017-01-14T13:33:09.007Z,4628
2017-01-14T13:34:08.912Z,4776
2017-01-14T13:35:08.479Z,4848
2017-01-14T13:36:08.057Z,4896
2017-01-14T13:37:08.792Z,4944
2017-01-14T13:38:08.367Z,5008
2017-01-14T13:39:08.618Z,4788
2017-01-14T13:40:08.666Z,4576
2017-01-14T13:41:08.621Z,4448
2017-01-14T13:42:07.827Z,4448
2017-01-14T13:43:08.541Z,4516
2017-01-14T13:44:08.508Z,4656
2017-01-14T13:45:08.074Z,4808
2017-01-14T13:46:08.420Z,4888
2017-01-14T13:47:07.600Z,4932
2017-01-14T13:48:07.952Z,4948
2017-01-14T13:49:07.915Z,4936
2017-01-14T13:50:07.481Z,4888
2017-01-14T13:51:07.829Z,4768
2017-01-14T13:52:07.781Z,4652
2017-01-14T13:53:07.748Z,4524
2017-01-14T13:54:07.708Z,4348
2017-01-14T13:55:07.668Z,3868
2017-01-14T13:56:07.250Z,3308
2017-01-14T13:57:08.010Z,2988
2017-01-14T13:58:07.549Z,3008
2017-01-14T13:59:07.894Z,2996
2017-01-14T14:00:07.845Z,2896
2017-01-14T14:01:07.427Z,2652
2017-01-14T14:02:07.380Z,2256
2017-01-14T14:03:07.334Z,2220